Time;durP1;ratioP1;P1;durP2;ratioP2;P2;SDS_P1;SDS_P2;PMS_P1;PMS_P2;Temp;Humidity;BMP_temperature;BMP_pressure;BME280_temperature;BME280_humidity;BME280_pressure;Samples;Min_cycle;Max_cycle;Signal;HPM_P1;HPM_P2
2021/01/25 00:01:49;;;;;;;23.77;14.48;;;;;;;4.35;66.42;99958.16;5050333;28;20111;-78
2021/01/25 00:04:16;;;;;;;29.25;15.82;;;;;;;4.36;66.60;99965.09;5052929;28;20028;-80
2021/01/25 00:06:42;;;;;;;27.15;14.63;;;;;;;4.34;66.82;99959.03;5052661;28;20039;-78
2021/01/25 00:09:08;;;;;;;25.52;15.35;;;;;;;4.30;66.43;99968.69;5050784;28;20021;-78
2021/01/25 00:11:35;;;;;;;25.90;14.45;;;;;;;4.26;66.85;99966.09;5051796;28;20028;-79
2021/01/25 00:14:01;;;;;;;25.08;14.75;;;;;;;4.27;66.49;99978.31;5051323;28;20025;-78
2021/01/25 00:16:28;;;;;;;27.27;15.95;;;;;;;4.26;66.30;99976.56;5050263;28;20082;-80
2021/01/25 00:18:55;;;;;;;22.98;15.48;;;;;;;4.25;66.90;99977.44;5049987;28;20030;-77
2021/01/25 00:21:22;;;;;;;26.88;15.15;;;;;;;4.18;66.85;99980.13;5051885;28;20025;-78
2021/01/25 00:23:48;;;;;;;23.55;14.73;;;;;;;4.18;66.67;99985.34;5052381;28;20024;-79
2021/01/25 00:26:15;;;;;;;29.08;16.65;;;;;;;4.12;67.22;99977.53;5050387;28;20545;-82
2021/01/25 00:28:41;;;;;;;27.48;16.08;;;;;;;4.12;67.13;99982.78;5051462;28;20483;-79
2021/01/25 00:31:08;;;;;;;23.35;15.10;;;;;;;4.13;66.78;99974.03;5051606;28;20044;-78
2021/01/25 00:33:34;;;;;;;25.33;15.35;;;;;;;4.13;67.24;99981.06;5052300;28;20025;-80
2021/01/25 00:36:01;;;;;;;28.88;15.93;;;;;;;4.07;67.38;99981.94;5052156;28;20087;-79
2021/01/25 00:38:27;;;;;;;28.63;16.30;;;;;;;4.05;67.31;99979.34;5049910;28;20090;-77
2021/01/25 00:40:54;;;;;;;27.35;14.80;;;;;;;4.05;67.07;99978.50;5048677;28;20121;-78
2021/01/25 00:43:20;;;;;;;27.73;15.23;;;;;;;4.03;66.97;99988.09;5033504;28;20568;-78
2021/01/25 00:45:47;;;;;;;29.45;16.27;;;;;;;3.98;67.51;99982.03;5059450;22;20041;-79
2021/01/25 00:48:13;;;;;;;31.70;16.50;;;;;;;3.97;67.93;99986.38;5062322;28;20025;-79
2021/01/25 00:50:40;;;;;;;29.00;15.18;;;;;;;3.96;67.98;99989.91;5065796;28;20021;-79
2021/01/25 00:53:07;;;;;;;28.92;16.27;;;;;;;4.27;66.74;99983.56;5066459;28;20115;-79
2021/01/25 00:55:33;;;;;;;27.30;15.88;;;;;;;4.34;66.21;99985.25;5053867;28;20017;-79
2021/01/25 00:58:01;;;;;;;24.60;14.98;;;;;;;4.36;66.28;99983.47;5035469;28;20034;-79
2021/01/25 01:00:28;;;;;;;28.63;16.98;;;;;;;4.36;66.53;99980.84;5040083;28;20030;-82
2021/01/25 01:02:54;;;;;;;24.15;15.25;;;;;;;4.39;66.10;99988.72;5034135;28;20022;-78
2021/01/25 01:05:21;;;;;;;24.70;14.60;;;;;;;4.35;66.84;99990.47;5034405;28;20041;-79
2021/01/25 01:07:48;;;;;;;27.30;15.32;;;;;;;4.35;66.64;99997.50;5036099;28;20029;-79
2021/01/25 01:10:15;;;;;;;23.33;13.65;;;;;;;4.36;66.66;99997.47;5033299;28;20029;-78
2021/01/25 01:12:41;;;;;;;35.80;15.43;;;;;;;4.36;66.95;99993.97;5035355;28;20057;-80
2021/01/25 01:15:13;;;;;;;22.23;13.32;;;;;;;4.48;66.37;100008.75;5035124;28;20033;-79
2021/01/25 01:17:41;;;;;;;22.73;14.13;;;;;;;4.49;66.53;99994.75;5036359;28;20021;-78
2021/01/25 01:20:08;;;;;;;19.27;13.20;;;;;;;4.51;66.56;100000.81;5034178;28;20060;-78
2021/01/25 01:22:35;;;;;;;21.45;13.02;;;;;;;4.56;66.19;100006.94;5036270;28;20029;-79
2021/01/25 01:25:03;;;;;;;22.40;13.27;;;;;;;4.56;66.10;100006.94;5035497;28;20752;-80
2021/01/25 01:27:29;;;;;;;21.25;12.88;;;;;;;4.58;66.42;100006.91;5035938;28;20033;-80
2021/01/25 01:29:56;;;;;;;25.15;13.43;;;;;;;4.58;66.34;100009.53;5035118;28;20034;-79
2021/01/25 01:32:22;;;;;;;21.77;13.63;;;;;;;4.57;66.06;100013.91;5034492;28;20032;-79
2021/01/25 01:34:49;;;;;;;21.58;12.48;;;;;;;4.60;66.37;100013.00;5035195;28;20103;-79
2021/01/25 01:37:16;;;;;;;20.00;12.77;;;;;;;4.60;66.35;100023.50;5039761;28;20033;-78
2021/01/25 01:39:43;;;;;;;24.60;14.75;;;;;;;4.60;66.32;100023.50;5039484;28;20107;-78
2021/01/25 01:42:17;;;;;;;23.52;13.50;;;;;;;4.57;66.60;100032.25;5039639;28;20025;-78
2021/01/25 01:44:44;;;;;;;21.17;14.05;;;;;;;4.50;66.25;100027.97;5040782;28;20078;-78
2021/01/25 01:47:15;;;;;;;27.33;14.95;;;;;;;4.51;66.27;100032.31;5043305;28;20049;-78
2021/01/25 01:49:41;;;;;;;24.80;14.30;;;;;;;4.51;66.20;100038.44;5052304;28;20056;-79
2021/01/25 01:52:08;;;;;;;19.13;13.25;;;;;;;4.56;65.98;100045.41;5052312;28;20415;-78
2021/01/25 01:54:35;;;;;;;28.35;16.10;;;;;;;4.53;66.39;100043.66;5047325;28;20025;-78
2021/01/25 01:57:01;;;;;;;22.88;14.60;;;;;;;4.53;66.63;100051.53;5050708;28;20029;-78
2021/01/25 01:59:28;;;;;;;25.08;15.20;;;;;;;4.56;66.28;100042.78;5047878;28;20083;-79
2021/01/25 02:01:54;;;;;;;26.05;14.32;;;;;;;4.53;66.47;100059.41;5042769;28;20029;-78
2021/01/25 02:04:21;;;;;;;22.27;14.68;;;;;;;4.53;66.74;100048.91;5038491;28;20036;-78
2021/01/25 02:06:50;;;;;;;27.83;14.70;;;;;;;4.61;66.55;100056.72;5037905;28;20384;-78
2021/01/25 02:09:18;;;;;;;27.50;14.77;;;;;;;4.57;66.42;100052.41;5041520;28;20495;-78
2021/01/25 02:11:45;;;;;;;24.95;15.52;;;;;;;4.63;66.65;100054.97;5041760;28;20037;-78
2021/01/25 02:14:12;;;;;;;29.30;14.70;;;;;;;4.63;66.83;100047.09;5038936;28;20534;-79
2021/01/25 02:16:40;;;;;;;28.27;15.98;;;;;;;4.63;66.53;100052.34;5070519;22;20075;-82
2021/01/25 02:19:12;;;;;;;22.42;13.50;;;;;;;4.69;66.34;100044.41;5069318;28;20017;-80
2021/01/25 02:21:45;;;;;;;23.02;15.40;;;;;;;4.66;66.53;100054.94;5071868;28;20379;-81
2021/01/25 02:27:28;;;;;;;22.95;15.60;;;;;;;4.81;66.00;100070.56;5054496;27;20468;-84
2021/01/25 02:29:55;;;;;;;17.70;12.05;;;;;;;4.74;66.12;100070.63;5046265;28;20047;-80
2021/01/25 02:32:22;;;;;;;25.65;15.45;;;;;;;4.76;66.40;100066.22;5047966;28;20493;-81
2021/01/25 02:34:49;;;;;;;24.50;14.18;;;;;;;4.76;66.08;100066.22;5047602;28;20442;-81
2021/01/25 02:37:16;;;;;;;24.95;14.23;;;;;;;4.78;66.54;100067.94;5049013;28;20025;-81
2021/01/25 02:39:44;;;;;;;22.33;14.50;;;;;;;4.83;66.54;100081.03;5046805;28;20075;-81
2021/01/25 02:42:11;;;;;;;22.88;14.57;;;;;;;4.85;66.55;100077.50;5049175;28;20025;-81
2021/01/25 02:44:40;;;;;;;22.83;13.68;;;;;;;4.90;66.17;100073.97;5047537;28;20036;-82
2021/01/25 02:47:07;;;;;;;20.15;13.23;;;;;;;4.85;66.26;100077.50;5048440;28;20116;-81
2021/01/25 02:49:34;;;;;;;22.58;14.63;;;;;;;4.61;67.56;100081.22;5048354;28;20490;-80
2021/01/25 02:52:00;;;;;;;19.70;13.25;;;;;;;4.61;67.70;100088.22;5048552;28;20029;-82
2021/01/25 02:54:27;;;;;;;19.70;12.52;;;;;;;4.60;67.29;100087.34;5048899;28;20021;-81
2021/01/25 02:56:53;;;;;;;21.20;12.68;;;;;;;4.62;67.53;100085.59;5046119;28;20120;-81
2021/01/25 02:59:20;;;;;;;26.67;13.43;;;;;;;4.64;67.57;100093.44;5048179;28;20087;-81
2021/01/25 03:01:47;;;;;;;20.15;12.20;;;;;;;4.66;67.53;100094.28;5048657;28;20029;-81
2021/01/25 03:04:14;;;;;;;24.60;13.55;;;;;;;4.65;67.71;100095.19;5048704;28;20036;-81
2021/01/25 03:06:42;;;;;;;19.33;12.20;;;;;;;4.68;67.61;100095.16;5048325;28;20021;-81
2021/01/25 03:09:09;;;;;;;22.15;13.07;;;;;;;4.70;67.30;100098.66;5047067;28;20116;-82
2021/01/25 03:11:39;;;;;;;20.63;12.75;;;;;;;4.69;67.61;100102.16;5044452;28;20025;-83
2021/01/25 03:14:07;;;;;;;16.80;11.48;;;;;;;4.73;67.43;100109.09;5038774;28;20030;-82
2021/01/25 03:16:34;;;;;;;21.27;12.43;;;;;;;4.73;67.43;100103.00;5046292;28;20030;-81
2021/01/25 03:19:00;;;;;;;22.80;12.90;;;;;;;4.73;67.07;100103.00;5046430;28;20029;-81
2021/01/25 03:21:27;;;;;;;19.83;12.30;;;;;;;4.75;66.99;100104.72;5047481;28;20104;-81
2021/01/25 03:24:04;;;;;;;21.88;13.80;;;;;;;4.81;67.16;100101.16;5047450;28;20029;-81
2021/01/25 03:26:39;;;;;;;26.52;14.02;;;;;;;4.78;66.95;100095.94;5045090;28;20033;-81
2021/01/25 03:29:10;;;;;;;20.88;13.07;;;;;;;4.68;67.19;100100.41;5041686;28;20060;-81
2021/01/25 03:31:37;;;;;;;23.05;13.32;;;;;;;4.56;67.04;100100.50;5046339;28;20036;-82
2021/01/25 03:34:05;;;;;;;25.63;15.68;;;;;;;4.49;66.80;100111.03;5044427;28;20476;-81
2021/01/25 03:36:32;;;;;;;22.42;14.27;;;;;;;4.44;67.06;100112.81;5041242;28;20056;-81
2021/01/25 03:38:58;;;;;;;25.35;14.68;;;;;;;4.39;66.58;100114.59;5031705;28;20543;-81
2021/01/25 03:41:26;;;;;;;26.05;14.20;;;;;;;4.30;66.67;100114.63;5032664;28;20033;-82
2021/01/25 03:43:53;;;;;;;26.58;15.65;;;;;;;4.26;66.62;100120.78;5034644;28;20017;-81
2021/01/25 03:46:19;;;;;;;22.05;13.80;;;;;;;4.20;66.64;100119.94;5025915;22;20068;-77
2021/01/25 03:48:46;;;;;;;25.33;15.23;;;;;;;4.16;67.03;100125.22;4995241;28;20034;-77
2021/01/25 03:51:14;;;;;;;26.20;14.70;;;;;;;4.13;66.80;100123.47;4994653;28;20027;-77
2021/01/25 03:53:41;;;;;;;24.85;15.45;;;;;;;4.08;66.82;100122.63;5002378;28;20033;-77
2021/01/25 03:56:07;;;;;;;25.10;14.27;;;;;;;4.08;66.67;100129.66;5003907;28;20026;-77
2021/01/25 03:58:34;;;;;;;24.63;14.93;;;;;;;4.03;67.07;100127.03;4996876;28;20034;-77
2021/01/25 04:01:00;;;;;;;25.20;14.70;;;;;;;4.01;67.07;100128.78;4995217;28;20396;-78
2021/01/25 04:03:26;;;;;;;26.58;15.95;;;;;;;4.00;67.35;100148.00;4994932;28;20050;-77
2021/01/25 04:05:53;;;;;;;24.35;15.63;;;;;;;3.98;66.84;100147.16;4994917;28;20026;-78
2021/01/25 04:08:19;;;;;;;28.05;16.83;;;;;;;3.95;67.06;100155.03;4995157;28;20034;-78
2021/01/25 04:10:46;;;;;;;28.30;16.67;;;;;;;3.95;66.79;100173.38;5010004;28;20070;-78
2021/01/25 04:13:12;;;;;;;29.05;17.70;;;;;;;3.96;67.16;100178.63;5007842;28;20520;-77
2021/01/25 04:15:38;;;;;;;28.08;16.58;;;;;;;3.98;67.42;100187.34;4999279;28;20034;-78
2021/01/25 04:18:05;;;;;;;26.92;15.32;;;;;;;4.02;67.05;100189.06;5007461;28;20129;-77
2021/01/25 04:20:31;;;;;;;28.27;16.45;;;;;;;4.05;67.58;100194.31;4997268;28;20035;-77
2021/01/25 04:22:58;;;;;;;25.20;15.43;;;;;;;4.07;67.41;100199.53;5013074;28;20032;-78
2021/01/25 04:25:24;;;;;;;29.70;15.95;;;;;;;4.08;67.07;100196.03;4996777;28;20420;-78
2021/01/25 04:27:51;;;;;;;27.30;17.13;;;;;;;4.13;67.38;100198.66;4992286;28;20068;-78
2021/01/25 04:30:17;;;;;;;30.90;17.63;;;;;;;4.16;67.29;100207.38;4995334;28;20432;-78
2021/01/25 04:32:44;;;;;;;30.02;16.20;;;;;;;4.19;67.21;100209.97;4995184;28;20519;-78
2021/01/25 04:35:13;;;;;;;26.10;16.83;;;;;;;4.17;67.41;100216.09;4995158;28;20436;-78
2021/01/25 04:37:41;;;;;;;27.50;16.27;;;;;;;4.24;67.09;100203.84;4995051;28;20104;-77
2021/01/25 04:40:08;;;;;;;26.90;16.48;;;;;;;4.24;67.47;100212.59;4994750;28;20022;-77
2021/01/25 04:42:36;;;;;;;25.52;16.33;;;;;;;4.26;67.38;100220.44;4994920;28;20064;-78
2021/01/25 04:45:05;;;;;;;29.63;16.55;;;;;;;4.26;66.87;100223.06;4994576;28;20033;-77
2021/01/25 04:47:32;;;;;;;25.77;15.20;;;;;;;4.22;66.93;100227.44;4994885;28;20035;-77
2021/01/25 04:49:58;;;;;;;26.80;15.82;;;;;;;4.16;66.50;100225.75;4993664;28;20037;-77
2021/01/25 04:52:25;;;;;;;24.33;14.98;;;;;;;4.10;66.62;100228.38;4994844;28;20093;-78
2021/01/25 04:54:53;;;;;;;23.15;14.65;;;;;;;4.04;66.99;100229.25;4994644;28;20034;-77
2021/01/25 04:57:21;;;;;;;21.98;15.35;;;;;;;3.98;66.94;100228.41;4994742;28;20473;-78
2021/01/25 04:59:48;;;;;;;20.67;14.45;;;;;;;3.92;66.39;100231.06;4994596;28;20052;-77
2021/01/25 05:02:14;;;;;;;28.73;14.75;;;;;;;3.85;66.68;100231.06;4994451;28;20477;-77
2021/01/25 05:04:41;;;;;;;27.23;15.70;;;;;;;3.78;66.39;100231.09;4994555;28;20042;-77
2021/01/25 05:07:07;;;;;;;24.92;14.63;;;;;;;3.69;66.28;100232.84;4994302;28;20101;-77
2021/01/25 05:09:34;;;;;;;23.92;14.88;;;;;;;3.65;66.55;100236.34;4995442;28;20068;-77
2021/01/25 05:12:03;;;;;;;27.05;16.02;;;;;;;3.60;66.82;100238.09;4991451;28;20412;-79
2021/01/25 05:14:48;;;;;;;24.63;15.57;;;;;;;3.61;66.33;100242.44;4994217;28;20428;-78
2021/01/25 05:17:16;;;;;;;25.80;15.55;;;;;;;3.48;67.02;100249.44;4994165;28;20117;-78
2021/01/25 05:19:45;;;;;;;26.02;15.15;;;;;;;3.43;66.55;100251.22;4994226;28;20057;-80
2021/01/25 05:22:20;;;;;;;32.60;17.70;;;;;;;3.41;66.43;100255.56;4994192;28;20481;-78
2021/01/25 05:24:50;;;;;;;28.27;16.63;;;;;;;3.34;66.40;100264.28;4993891;28;20468;-77
2021/01/25 05:27:32;;;;;;;30.58;17.05;;;;;;;3.33;66.85;100275.66;4993906;28;20030;-78
2021/01/25 05:30:13;;;;;;;25.63;15.02;;;;;;;3.29;66.62;100280.00;4994160;28;20112;-78
2021/01/25 05:32:57;;;;;;;29.30;17.08;;;;;;;3.22;66.35;100279.13;4994001;28;20061;-77
2021/01/25 05:35:29;;;;;;;28.92;16.85;;;;;;;3.09;66.51;100277.38;4994128;28;20030;-77
2021/01/25 05:37:58;;;;;;;27.70;17.33;;;;;;;3.03;66.72;100287.84;4993873;28;20081;-78
2021/01/25 05:40:26;;;;;;;27.92;16.65;;;;;;;2.99;67.19;100286.06;4994094;28;20480;-78
2021/01/25 05:42:53;;;;;;;30.27;17.58;;;;;;;2.98;66.68;100287.81;4993884;28;20064;-78
2021/01/25 05:45:21;;;;;;;29.73;17.27;;;;;;;2.96;67.01;100293.91;4993767;28;20516;-78
2021/01/25 05:47:50;;;;;;;24.35;15.30;;;;;;;2.94;67.10;100287.81;4992623;28;20086;-78
2021/01/25 05:53:19;;;;;;;29.45;16.15;;;;;;;2.85;67.10;100304.34;5081186;27;20400;-80
2021/01/25 05:55:45;;;;;;;27.08;15.75;;;;;;;2.79;67.16;100307.84;5057225;28;20045;-78
2021/01/25 05:58:12;;;;;;;36.10;17.67;;;;;;;2.78;67.23;100302.56;5047644;28;20037;-79
2021/01/25 06:00:38;;;;;;;33.03;17.98;;;;;;;2.77;67.36;100306.94;5049640;28;20017;-79
2021/01/25 06:03:05;;;;;;;23.33;15.63;;;;;;;2.74;67.54;100306.91;5049905;28;20056;-78
2021/01/25 06:13:41;;;;;;;30.13;18.10;;;;;;;2.72;67.78;100324.38;5067396;28;20398;-79
2021/01/25 06:16:11;;;;;;;30.50;18.25;;;;;;;2.72;67.54;100325.25;5051212;28;20559;-80
2021/01/25 06:18:41;;;;;;;41.90;16.92;;;;;;;2.67;67.65;100326.97;5048075;28;20029;-79
2021/01/25 06:21:11;;;;;;;35.25;19.10;;;;;;;2.68;67.80;100333.06;5036258;28;20029;-79
2021/01/25 06:23:37;;;;;;;28.50;17.75;;;;;;;2.67;67.82;100333.94;5046900;28;20048;-80
2021/01/25 06:26:05;;;;;;;30.13;18.50;;;;;;;2.66;68.02;100330.44;5045399;28;20035;-79
2021/01/25 06:28:32;;;;;;;33.35;17.90;;;;;;;2.68;67.77;100331.34;5046537;28;20025;-79
2021/01/25 06:30:59;;;;;;;36.97;19.63;;;;;;;2.67;67.99;100341.78;5044656;28;20037;-79
2021/01/25 06:33:25;;;;;;;33.90;18.75;;;;;;;2.66;67.77;100347.91;5045970;28;20083;-79
2021/01/25 06:35:52;;;;;;;30.77;18.42;;;;;;;2.65;68.42;100348.75;5041783;28;20366;-79
2021/01/25 06:38:20;;;;;;;33.90;19.10;;;;;;;2.65;68.66;100349.63;5038713;28;20112;-79
2021/01/25 06:40:49;;;;;;;36.17;19.10;;;;;;;2.65;68.77;100360.06;5043387;28;20447;-81
2021/01/25 06:43:18;;;;;;;33.30;18.25;;;;;;;2.69;68.69;100360.97;5046930;28;20480;-79
2021/01/25 06:45:47;;;;;;;32.10;18.02;;;;;;;2.65;68.66;100361.84;5043322;28;20377;-80
2021/01/25 06:48:15;;;;;;;33.75;19.63;;;;;;;2.65;68.73;100373.16;5045343;28;20464;-81
2021/01/25 06:50:49;;;;;;;36.47;19.50;;;;;;;2.67;68.28;100381.03;5044615;28;20075;-79
2021/01/25 06:53:16;;;;;;;37.83;19.88;;;;;;;2.60;68.48;100382.72;5046715;28;20037;-80
2021/01/25 06:55:44;;;;;;;33.45;19.15;;;;;;;2.60;68.59;100382.72;5054560;28;20087;-80
2021/01/25 06:58:12;;;;;;;32.35;17.48;;;;;;;2.62;68.18;100393.19;5048157;28;20392;-82
2021/01/25 07:00:39;;;;;;;33.60;20.55;;;;;;;2.58;68.62;100393.19;5029873;28;20054;-79
2021/01/25 07:03:06;;;;;;;35.70;19.73;;;;;;;2.56;68.55;100392.28;5032035;28;20079;-79
2021/01/25 07:05:38;;;;;;;34.88;20.00;;;;;;;2.61;68.55;100399.31;5036850;28;20449;-79
2021/01/25 07:08:26;;;;;;;39.78;21.15;;;;;;;2.62;68.68;100401.03;5038580;28;20029;-79
2021/01/25 07:13:38;;;;;;;37.13;20.52;;;;;;;2.52;68.51;100415.81;5084517;27;20397;-78
2021/01/25 07:16:05;;;;;;;36.00;20.58;;;;;;;2.50;68.55;100422.78;5054858;28;20499;-79
2021/01/25 07:18:31;;;;;;;40.30;20.90;;;;;;;2.49;68.46;100426.25;5045334;28;20028;-79
2021/01/25 07:21:00;;;;;;;36.25;21.33;;;;;;;2.48;68.60;100428.00;5047999;28;20021;-79
2021/01/25 07:23:28;;;;;;;37.45;21.80;;;;;;;2.46;68.50;100427.09;5051338;28;20034;-81
2021/01/25 07:26:02;;;;;;;39.20;20.40;;;;;;;2.49;68.64;100434.09;5051028;28;20034;-79
2021/01/25 07:28:30;;;;;;;35.65;20.63;;;;;;;2.43;68.41;100434.94;5059695;28;20545;-79
2021/01/25 07:30:57;;;;;;;39.78;21.65;;;;;;;2.38;68.45;100445.38;5037804;28;20033;-79
2021/01/25 07:33:24;;;;;;;46.33;23.80;;;;;;;2.37;68.33;100445.38;5038684;28;20055;-79
2021/01/25 07:35:52;;;;;;;38.60;21.20;;;;;;;2.34;68.07;100454.03;5033890;28;20030;-80
2021/01/25 07:38:19;;;;;;;42.80;21.00;;;;;;;2.33;68.21;100464.47;5038018;28;20391;-79
2021/01/25 07:40:47;;;;;;;38.40;22.42;;;;;;;2.33;68.13;100468.00;5035515;28;20021;-79
2021/01/25 07:43:15;;;;;;;46.47;22.38;;;;;;;2.33;68.28;100469.72;5040157;28;20052;-81
2021/01/25 07:45:43;;;;;;;38.28;22.92;;;;;;;2.26;68.27;100467.06;5041643;28;20051;-79
2021/01/25 07:48:10;;;;;;;38.20;21.27;;;;;;;2.25;68.28;100464.44;5041288;28;20031;-79
2021/01/25 07:50:37;;;;;;;37.92;21.73;;;;;;;2.24;68.04;100471.41;5035895;28;20025;-79
2021/01/25 07:53:06;;;;;;;39.22;22.67;;;;;;;2.22;67.97;100480.97;5036938;28;20049;-81
2021/01/25 07:55:37;;;;;;;43.75;23.10;;;;;;;2.24;68.20;100483.59;5037480;28;20061;-82
2021/01/25 07:58:09;;;;;;;39.28;20.65;;;;;;;2.19;68.30;100486.16;5048548;28;20013;-80
2021/01/25 08:00:38;;;;;;;37.63;21.77;;;;;;;2.14;67.96;100487.00;5051381;28;20115;-81
2021/01/25 08:05:48;;;;;;;33.67;21.25;;;;;;;2.12;67.75;100493.94;5061757;28;20513;-80
2021/01/25 08:08:15;;;;;;;45.25;24.13;;;;;;;2.14;67.44;100513.13;5034449;28;20037;-80
2021/01/25 08:10:42;;;;;;;45.22;22.00;;;;;;;2.15;67.96;100507.91;5025444;28;20033;-84
2021/01/25 08:13:20;;;;;;;42.53;23.10;;;;;;;2.21;68.07;100510.56;5022348;28;20061;-80
2021/01/25 08:16:11;;;;;;;38.35;21.52;;;;;;;2.28;68.00;100516.75;5026444;28;20175;-81
2021/01/25 08:18:52;;;;;;;48.10;25.38;;;;;;;2.25;68.30;100520.19;5020117;28;20057;-85
2021/01/25 08:21:25;;;;;;;48.70;25.20;;;;;;;2.31;68.17;100526.38;5030516;28;20033;-81
2021/01/25 08:23:54;;;;;;;37.38;22.27;;;;;;;2.31;68.26;100527.22;5031226;28;20029;-82
2021/01/25 08:26:25;;;;;;;52.83;27.23;;;;;;;2.36;68.37;100533.38;5016832;28;20028;-81
2021/01/25 08:29:14;;;;;;;77.55;38.67;;;;;;;2.46;68.46;100542.16;5022497;28;20013;-84
2021/01/25 08:31:43;;;;;;;50.08;27.58;;;;;;;2.42;68.42;100548.25;5027431;28;20096;-82
2021/01/25 08:34:30;;;;;;;46.85;25.98;;;;;;;2.54;68.55;100548.34;5027257;28;20536;-81
2021/01/25 08:39:50;;;;;;;43.03;25.40;;;;;;;2.57;68.41;100556.22;5054932;28;20483;-80
2021/01/25 08:42:24;;;;;;;51.03;27.27;;;;;;;2.64;68.76;100558.88;5037245;28;20488;-80
2021/01/25 08:45:01;;;;;;;51.42;28.48;;;;;;;2.67;68.69;100565.00;5036265;28;20161;-81
2021/01/25 08:47:31;;;;;;;53.28;26.85;;;;;;;2.72;68.64;100559.81;5030804;28;20030;-82
2021/01/25 08:49:59;;;;;;;47.47;27.55;;;;;;;2.72;68.82;100560.69;5030087;28;20034;-79
2021/01/25 08:52:30;;;;;;;46.90;26.17;;;;;;;2.79;68.67;100565.97;5028699;28;20061;-83
2021/01/25 08:55:25;;;;;;;50.17;26.95;;;;;;;2.89;68.75;100568.66;5019546;28;20449;-80
2021/01/25 08:57:53;;;;;;;50.67;28.13;;;;;;;2.86;68.65;100576.47;5024947;28;20030;-81
2021/01/25 09:00:32;;;;;;;47.17;27.65;;;;;;;2.99;68.74;100579.19;5030038;28;20033;-82
2021/01/25 09:03:04;;;;;;;48.60;28.23;;;;;;;2.99;68.89;100569.63;5017834;28;20477;-82
2021/01/25 09:05:31;;;;;;;44.17;25.95;;;;;;;3.04;68.79;100573.13;5018938;28;20026;-83
2021/01/25 09:07:58;;;;;;;44.67;25.15;;;;;;;3.04;69.10;100578.38;5018713;28;20030;-82
2021/01/25 09:10:25;;;;;;;53.85;25.42;;;;;;;3.10;68.79;100582.75;5019153;28;20096;-81
2021/01/25 09:12:52;;;;;;;41.90;24.98;;;;;;;3.16;68.79;100588.03;5018504;28;20037;-82
2021/01/25 09:15:19;;;;;;;49.88;25.63;;;;;;;3.20;69.09;100595.06;5018937;28;20058;-81
2021/01/25 09:17:45;;;;;;;40.85;24.30;;;;;;;3.28;68.97;100596.81;5019034;28;20068;-81
2021/01/25 09:20:12;;;;;;;40.05;23.95;;;;;;;3.34;68.68;100596.84;5014002;28;20022;-82
2021/01/25 09:22:38;;;;;;;40.00;24.58;;;;;;;3.38;68.83;100599.50;5013572;28;20029;-83
2021/01/25 09:25:07;;;;;;;43.80;23.25;;;;;;;3.40;69.15;100605.63;5025489;28;20038;-83
2021/01/25 09:27:33;;;;;;;39.28;24.15;;;;;;;3.49;68.76;100604.81;5020764;28;20091;-81
2021/01/25 09:30:00;;;;;;;43.83;25.65;;;;;;;3.56;68.54;100611.84;5013041;28;20113;-87
2021/01/25 09:32:26;;;;;;;39.88;24.90;;;;;;;3.65;68.49;100617.97;5013754;28;20419;-81
2021/01/25 09:34:54;;;;;;;36.92;23.15;;;;;;;3.71;68.77;100620.63;5021934;28;20029;-80
2021/01/25 09:37:21;;;;;;;40.53;22.98;;;;;;;3.74;68.60;100623.28;5013432;28;20126;-81
2021/01/25 09:39:50;;;;;;;33.85;21.02;;;;;;;3.86;68.62;100620.72;5020456;28;20027;-83
2021/01/25 09:42:16;;;;;;;36.95;21.83;;;;;;;3.89;68.52;100627.69;5020162;28;20086;-82
2021/01/25 09:44:43;;;;;;;38.20;21.70;;;;;;;3.95;68.30;100627.72;5018017;28;20026;-81
2021/01/25 09:47:09;;;;;;;35.17;20.80;;;;;;;4.01;68.15;100632.09;5021083;23;20050;-83
2021/01/25 09:49:36;;;;;;;34.72;19.50;;;;;;;4.06;68.02;100635.59;5010030;28;20477;-82
2021/01/25 09:52:03;;;;;;;30.83;19.60;;;;;;;4.14;67.90;100641.75;4985974;28;20090;-84
2021/01/25 09:54:30;;;;;;;31.73;17.50;;;;;;;4.20;68.03;100644.41;4984123;28;20031;-87
2021/01/25 09:56:56;;;;;;;29.13;17.27;;;;;;;4.20;67.47;100649.66;4989122;28;20520;-85
2021/01/25 09:59:22;;;;;;;29.05;17.48;;;;;;;4.28;67.89;100659.28;4986457;28;20042;-83
2021/01/25 10:01:48;;;;;;;34.38;21.02;;;;;;;4.30;67.67;100665.41;4982423;28;20043;-81
2021/01/25 10:04:15;;;;;;;43.00;23.60;;;;;;;4.42;67.20;100660.19;4984173;28;20030;-81
2021/01/25 10:06:41;;;;;;;31.05;18.23;;;;;;;4.47;67.62;100668.06;4987136;28;20038;-81
2021/01/25 10:09:07;;;;;;;25.58;16.83;;;;;;;4.53;67.63;100668.94;4985926;28;20035;-82
2021/01/25 10:11:34;;;;;;;24.30;14.90;;;;;;;4.64;67.04;100670.75;4980332;28;20034;-84
2021/01/25 10:14:00;;;;;;;24.35;15.30;;;;;;;4.67;67.29;100674.25;4981584;28;20030;-83
2021/01/25 10:16:26;;;;;;;23.10;14.30;;;;;;;4.67;66.59;100678.59;4987874;28;20461;-83
2021/01/25 10:18:52;;;;;;;20.00;12.45;;;;;;;4.77;66.33;100684.75;4992116;28;20639;-83
2021/01/25 10:21:19;;;;;;;20.35;13.73;;;;;;;4.87;66.19;100689.13;4993190;28;20025;-83
2021/01/25 10:23:47;;;;;;;18.88;12.50;;;;;;;4.91;65.86;100685.66;4984786;28;20034;-84
2021/01/25 10:26:14;;;;;;;18.20;11.73;;;;;;;5.00;66.05;100690.03;4986275;28;20087;-82
2021/01/25 10:28:41;;;;;;;17.50;11.57;;;;;;;5.05;65.83;100698.78;4986395;28;20026;-83
2021/01/25 10:31:07;;;;;;;18.75;12.25;;;;;;;5.13;65.39;100702.28;4984071;28;20027;-84
2021/01/25 10:33:33;;;;;;;21.42;12.57;;;;;;;5.22;64.93;100700.53;4983301;28;20045;-84
2021/01/25 10:35:59;;;;;;;17.50;12.25;;;;;;;5.16;65.38;100710.16;4987805;28;20033;-84
2021/01/25 10:38:26;;;;;;;22.45;11.88;;;;;;;5.17;65.42;100714.56;4985294;28;20120;-83
2021/01/25 10:40:53;;;;;;;15.77;11.00;;;;;;;5.30;64.78;100717.19;4984650;28;20022;-84
2021/01/25 10:43:20;;;;;;;18.42;11.27;;;;;;;5.37;65.00;100711.06;4986267;28;20109;-84
2021/01/25 10:45:46;;;;;;;24.88;11.13;;;;;;;5.43;64.23;100713.66;4987512;28;20038;-83
2021/01/25 10:48:12;;;;;;;17.35;11.70;;;;;;;5.58;64.15;100720.66;4981971;28;20058;-83
2021/01/25 10:50:38;;;;;;;19.58;12.15;;;;;;;5.65;64.05;100725.00;4978282;28;20478;-82
2021/01/25 10:53:04;;;;;;;16.40;11.13;;;;;;;5.71;64.08;100734.66;4978250;28;20494;-83
2021/01/25 10:55:31;;;;;;;19.17;12.30;;;;;;;5.80;63.80;100731.13;4982422;28;20121;-83
2021/01/25 10:57:57;;;;;;;17.25;10.88;;;;;;;5.94;63.62;100729.34;4994689;28;20049;-84
2021/01/25 11:00:24;;;;;;;16.60;10.73;;;;;;;6.06;63.01;100731.09;5001167;28;20038;-82
2021/01/25 11:02:51;;;;;;;19.38;11.73;;;;;;;6.03;63.38;100740.75;4984249;28;20033;-84
2021/01/25 11:05:21;;;;;;;19.10;10.60;;;;;;;6.20;62.74;100738.06;4993552;28;20038;-83
2021/01/25 11:07:48;;;;;;;20.60;11.95;;;;;;;6.20;62.41;100740.69;4992809;28;20565;-83
2021/01/25 11:10:22;;;;;;;17.40;11.90;;;;;;;6.34;62.21;100741.50;4994505;28;20081;-83
2021/01/25 11:12:49;;;;;;;19.67;10.65;;;;;;;6.42;62.35;100742.34;4994900;28;20033;-82
2021/01/25 11:15:16;;;;;;;18.95;11.15;;;;;;;6.45;62.62;100741.47;5005450;23;20034;-80
2021/01/25 11:17:42;;;;;;;23.30;10.48;;;;;;;6.48;62.30;100747.59;5024433;28;20298;-89
2021/01/25 11:20:09;;;;;;;17.80;10.88;;;;;;;6.58;61.99;100752.78;5025441;28;20021;-88
2021/01/25 11:22:36;;;;;;;20.38;12.10;;;;;;;6.66;62.00;100750.16;5020464;28;20025;-80
2021/01/25 11:25:02;;;;;;;18.13;10.82;;;;;;;6.74;61.62;100743.94;5026020;28;20117;-81
2021/01/25 11:27:28;;;;;;;19.00;10.77;;;;;;;6.86;61.34;100757.94;5007570;28;20041;-81
2021/01/25 11:29:59;;;;;;;18.15;11.50;;;;;;;6.96;61.49;100741.16;5011141;28;20037;-88
2021/01/25 11:32:25;;;;;;;17.40;11.27;;;;;;;7.05;61.05;100750.78;5005956;28;20042;-80
2021/01/25 11:34:51;;;;;;;16.85;10.32;;;;;;;7.17;60.54;100744.56;5005185;28;20022;-81
2021/01/25 11:37:18;;;;;;;17.38;9.93;;;;;;;7.12;60.09;100749.84;5007439;28;20469;-82
2021/01/25 11:39:45;;;;;;;14.70;8.77;;;;;;;7.18;59.76;100754.19;5010003;28;20384;-79
2021/01/25 11:42:11;;;;;;;16.48;10.20;;;;;;;7.29;60.12;100762.91;5001891;28;20022;-80
2021/01/25 11:44:38;;;;;;;17.58;10.07;;;;;;;7.29;60.02;100757.63;5019230;28;20121;-79
2021/01/25 11:47:05;;;;;;;20.42;11.25;;;;;;;7.36;60.09;100756.69;5009472;28;20703;-78